Time;durP1;ratioP1;P1;durP2;ratioP2;P2;SDS_P1;SDS_P2;PMS_P1;PMS_P2;Temp;Humidity;BMP_temperature;BMP_pressure;BME280_temperature;BME280_humidity;BME280_pressure;Samples;Min_cycle;Max_cycle;Signal;HPM_P1;HPM_P2
2022/09/10 00:00:54;;;;;;;14.82;9.13;;;22.10;65.30;;;;;;4914292;29;20107;-75
2022/09/10 00:03:21;;;;;;;15.68;9.63;;;22.10;65.50;;;;;;4914907;29;20039;-75
2022/09/10 00:05:48;;;;;;;16.95;8.30;;;22.10;65.40;;;;;;4898751;29;20043;-75
2022/09/10 00:08:15;;;;;;;18.13;8.85;;;22.10;65.50;;;;;;4915730;29;20060;-75
2022/09/10 00:10:44;;;;;;;14.02;7.82;;;22.10;65.40;;;;;;4915323;29;20024;-75
2022/09/10 00:13:14;;;;;;;14.15;7.90;;;22.10;65.20;;;;;;4915488;29;20103;-75
2022/09/10 00:15:42;;;;;;;13.55;7.55;;;22.10;65.30;;;;;;4898643;29;20393;-75
2022/09/10 00:18:09;;;;;;;13.02;6.70;;;22.10;65.40;;;;;;4915523;29;20032;-75
2022/09/10 00:20:46;;;;;;;12.20;6.15;;;22.10;65.30;;;;;;4915220;29;20426;-75
2022/09/10 00:23:13;;;;;;;11.63;6.85;;;22.10;65.20;;;;;;4914468;29;20040;-75
2022/09/10 00:25:39;;;;;;;13.55;7.05;;;22.10;65.10;;;;;;4915538;29;20075;-74
2022/09/10 00:28:07;;;;;;;11.15;6.05;;;22.10;65.10;;;;;;4882485;29;20032;-75
2022/09/10 00:30:39;;;;;;;11.50;6.13;;;22.10;65.30;;;;;;4915097;29;20028;-75
2022/09/10 00:33:05;;;;;;;14.00;5.82;;;22.10;65.30;;;;;;4898090;29;20513;-75
2022/09/10 00:35:35;;;;;;;12.27;5.40;;;22.10;65.10;;;;;;4898599;29;20029;-75
2022/09/10 00:38:01;;;;;;;11.68;6.32;;;22.10;65.00;;;;;;4898329;29;20032;-75
2022/09/10 00:40:27;;;;;;;10.95;5.63;;;22.10;65.20;;;;;;4898255;29;20028;-75
2022/09/10 00:42:53;;;;;;;11.35;5.93;;;22.10;65.10;;;;;;4898488;29;20036;-75
2022/09/10 00:45:25;;;;;;;10.90;5.57;;;22.10;65.10;;;;;;4914056;29;20059;-75
2022/09/10 00:47:54;;;;;;;8.77;4.97;;;22.10;65.10;;;;;;4913774;29;20032;-75
2022/09/10 00:50:26;;;;;;;8.95;4.10;;;22.10;65.10;;;;;;4913519;29;20032;-75
2022/09/10 00:52:56;;;;;;;11.20;4.60;;;22.10;65.10;;;;;;4897800;29;20036;-76
2022/09/10 00:55:22;;;;;;;;;;;22.00;64.90;;;;;;4914278;29;20032;-75
2022/09/10 00:57:51;;;;;;;8.68;3.90;;;22.10;64.90;;;;;;4929744;29;19962;-75
2022/09/10 01:00:17;;;;;;;8.68;4.40;;;22.10;65.10;;;;;;4897791;29;20493;-76
2022/09/10 01:02:43;;;;;;;10.05;5.60;;;22.10;64.80;;;;;;4913721;29;20032;-75
2022/09/10 01:05:10;;;;;;;8.80;4.22;;;22.10;64.80;;;;;;4913851;29;20024;-75
2022/09/10 01:07:36;;;;;;;9.02;5.22;;;22.10;64.80;;;;;;4898051;29;20028;-75
2022/09/10 01:10:08;;;;;;;7.60;3.85;;;22.10;64.70;;;;;;4913413;29;20024;-75
2022/09/10 01:12:55;;;;;;;9.40;4.10;;;22.10;64.80;;;;;;4914987;29;20382;-75
2022/09/10 01:15:50;;;;;;;9.75;4.32;;;22.10;64.70;;;;;;4913977;29;20076;-75
2022/09/10 01:18:50;;;;;;;6.32;3.53;;;22.00;64.70;;;;;;4913905;29;20119;-75
2022/09/10 01:21:32;;;;;;;;;;;22.00;64.70;;;;;;4914140;29;20032;-75
2022/09/10 01:24:22;;;;;;;6.82;3.78;;;22.10;64.70;;;;;;4897740;29;19974;-75
2022/09/10 01:26:57;;;;;;;7.05;3.53;;;22.10;64.60;;;;;;4913701;29;20493;-75
2022/09/10 01:29:46;;;;;;;7.72;4.00;;;22.10;64.60;;;;;;4913325;29;20032;-75
2022/09/10 01:32:25;;;;;;;8.48;3.45;;;22.10;64.50;;;;;;4915208;29;20025;-75
2022/09/10 01:34:55;;;;;;;7.53;3.50;;;22.10;64.60;;;;;;4913598;29;20509;-75
2022/09/10 01:37:27;;;;;;;5.50;3.30;;;22.00;64.40;;;;;;4913652;29;20028;-75
2022/09/10 01:39:55;;;;;;;6.03;3.20;;;22.00;64.50;;;;;;4913701;29;20371;-75
2022/09/10 01:42:27;;;;;;;5.88;2.88;;;22.00;64.40;;;;;;4917460;29;20162;-75
2022/09/10 01:44:56;;;;;;;6.85;3.00;;;22.10;64.50;;;;;;4917223;29;20056;-75
2022/09/10 01:47:59;;;;;;;4.85;2.53;;;22.10;64.60;;;;;;4917253;29;20469;-75
2022/09/10 01:50:51;;;;;;;6.00;2.80;;;22.00;64.60;;;;;;4916802;29;20032;-75
2022/09/10 01:53:59;;;;;;;7.43;2.67;;;22.00;64.60;;;;;;4916751;29;20095;-75
2022/09/10 01:56:39;;;;;;;4.65;2.33;;;22.00;64.60;;;;;;4916698;29;20032;-75
2022/09/10 01:59:37;;;;;;;5.38;2.75;;;22.00;64.80;;;;;;4916478;29;20036;-76
2022/09/10 02:02:20;;;;;;;6.45;2.67;;;22.00;64.60;;;;;;4916790;29;20032;-76
2022/09/10 02:04:49;;;;;;;5.00;2.75;;;22.00;64.70;;;;;;4916617;29;20552;-75
2022/09/10 02:07:20;;;;;;;5.25;2.65;;;22.00;64.50;;;;;;4916708;29;20433;-75
2022/09/10 02:09:46;;;;;;;8.45;2.90;;;22.00;64.60;;;;;;4916434;29;20378;-75
2022/09/10 02:12:18;;;;;;;5.97;2.70;;;22.00;64.50;;;;;;4916970;29;20111;-76
2022/09/10 02:15:10;;;;;;;6.68;2.45;;;22.00;64.60;;;;;;4872098;29;20041;-75
2022/09/10 02:18:05;;;;;;;4.88;2.30;;;22.00;64.40;;;;;;4878645;29;20474;-75
2022/09/10 02:20:31;;;;;;;7.40;2.55;;;22.00;64.70;;;;;;4878652;29;20542;-75
2022/09/10 02:22:58;;;;;;;5.53;2.30;;;22.00;64.60;;;;;;4879934;29;20108;-75
2022/09/10 02:25:31;;;;;;;6.65;2.55;;;22.00;64.60;;;;;;4879695;29;20043;-75
2022/09/10 02:27:57;;;;;;;4.93;2.20;;;22.00;64.40;;;;;;4879923;29;20085;-75
2022/09/10 02:30:23;;;;;;;6.82;2.47;;;22.00;64.50;;;;;;4862907;29;20520;-75
2022/09/10 02:32:50;;;;;;;6.00;2.20;;;22.00;64.50;;;;;;4878646;29;20040;-74
2022/09/10 02:35:16;;;;;;;4.18;2.08;;;22.00;64.30;;;;;;4878487;29;20397;-75
2022/09/10 02:37:45;;;;;;;7.23;2.30;;;22.00;64.40;;;;;;4878664;29;20029;-75
2022/09/10 02:40:11;;;;;;;5.40;2.20;;;22.00;64.40;;;;;;4878189;29;20029;-75
2022/09/10 02:42:37;;;;;;;4.07;1.98;;;22.00;64.30;;;;;;4878572;29;20041;-74
2022/09/10 02:45:04;;;;;;;5.95;2.17;;;22.00;64.50;;;;;;4878575;29;20075;-75
2022/09/10 02:47:30;;;;;;;3.50;2.10;;;22.00;64.40;;;;;;4878451;29;20128;-74
2022/09/10 02:49:56;;;;;;;5.35;2.17;;;22.00;64.10;;;;;;4878013;29;20104;-74
2022/09/10 02:52:22;;;;;;;4.68;2.20;;;22.00;64.20;;;;;;4877860;29;20104;-74
2022/09/10 02:54:49;;;;;;;4.85;2.17;;;21.90;64.70;;;;;;4878508;29;20463;-74
2022/09/10 02:57:15;;;;;;;4.50;2.30;;;22.00;64.20;;;;;;4878356;29;20068;-73
2022/09/10 02:59:42;;;;;;;6.43;3.00;;;22.00;64.10;;;;;;4862539;29;20635;-74
2022/09/10 03:02:09;;;;;;;8.13;2.70;;;22.00;64.10;;;;;;4862606;29;20085;-75
2022/09/10 03:04:37;;;;;;;4.93;2.30;;;21.90;64.30;;;;;;4878005;29;20033;-75
2022/09/10 03:07:03;;;;;;;4.75;2.20;;;21.90;63.90;;;;;;4878122;29;20092;-74
2022/09/10 03:09:29;;;;;;;7.43;2.28;;;21.90;64.10;;;;;;4877683;29;20120;-75
2022/09/10 03:11:55;;;;;;;4.53;2.17;;;22.00;63.90;;;;;;4862415;29;20033;-74
2022/09/10 03:14:23;;;;;;;3.25;1.90;;;21.90;63.90;;;;;;4877975;29;20232;-74
2022/09/10 03:16:49;;;;;;;5.40;2.47;;;21.90;63.90;;;;;;4878162;29;20037;-75
2022/09/10 03:19:16;;;;;;;4.90;2.25;;;22.00;64.00;;;;;;4877876;29;20036;-74
2022/09/10 03:21:42;;;;;;;3.78;2.10;;;22.00;63.90;;;;;;4877711;29;20096;-74
2022/09/10 03:24:10;;;;;;;4.32;1.95;;;22.00;63.90;;;;;;4877896;29;20033;-74
2022/09/10 03:26:36;;;;;;;4.00;1.90;;;22.00;63.80;;;;;;4877771;29;20107;-75
2022/09/10 03:29:03;;;;;;;3.45;2.00;;;22.00;63.60;;;;;;4877330;29;20029;-75
2022/09/10 03:31:35;;;;;;;5.65;2.40;;;22.00;63.70;;;;;;4877708;29;20033;-74
2022/09/10 03:34:02;;;;;;;6.40;1.80;;;22.00;63.60;;;;;;4862317;29;20029;-75
2022/09/10 03:36:30;;;;;;;3.95;2.08;;;22.00;63.70;;;;;;4877505;29;20105;-74
2022/09/10 03:38:57;;;;;;;4.03;2.00;;;22.00;63.70;;;;;;4877312;29;20076;-74
2022/09/10 03:41:27;;;;;;;6.30;1.80;;;22.00;63.60;;;;;;4878793;29;20184;-75
2022/09/10 03:43:56;;;;;;;3.85;1.83;;;21.90;63.60;;;;;;4862681;29;20036;-75
2022/09/10 03:46:25;;;;;;;5.25;2.10;;;22.00;63.70;;;;;;4877338;29;20077;-75
2022/09/10 03:48:54;;;;;;;5.30;2.25;;;21.90;63.60;;;;;;4877017;29;20065;-75
2022/09/10 03:51:22;;;;;;;6.20;2.20;;;21.90;63.70;;;;;;4877132;29;20025;-75
2022/09/10 03:53:48;;;;;;;5.40;1.58;;;21.90;63.50;;;;;;4877329;29;20401;-75
2022/09/10 03:56:18;;;;;;;5.32;2.00;;;21.90;63.60;;;;;;4861603;29;20029;-75
2022/09/10 03:58:45;;;;;;;4.43;2.15;;;21.90;63.60;;;;;;4876995;29;20516;-75
2022/09/10 04:01:11;;;;;;;4.22;2.05;;;21.90;63.50;;;;;;4877256;29;20447;-75
2022/09/10 04:03:41;;;;;;;5.93;1.88;;;21.90;63.50;;;;;;4861520;29;20040;-75
2022/09/10 04:06:15;;;;;;;6.70;1.92;;;21.90;63.50;;;;;;4877005;29;20036;-75
2022/09/10 04:08:42;;;;;;;4.35;1.70;;;21.90;63.50;;;;;;4861171;29;20033;-75
2022/09/10 04:11:09;;;;;;;3.85;1.80;;;21.90;63.40;;;;;;4876821;29;20033;-75
2022/09/10 04:13:35;;;;;;;3.63;1.70;;;21.90;63.90;;;;;;4877031;29;20084;-75
2022/09/10 04:16:02;;;;;;;6.03;1.60;;;21.90;63.50;;;;;;4876718;29;20029;-76
2022/09/10 04:18:30;;;;;;;5.85;1.70;;;21.90;63.50;;;;;;4861387;29;20486;-76
2022/09/10 04:20:56;;;;;;;5.60;1.80;;;21.90;63.50;;;;;;4876800;29;20565;-75
2022/09/10 04:23:22;;;;;;;4.88;1.98;;;21.90;63.40;;;;;;4876765;29;20033;-75
2022/09/10 04:25:49;;;;;;;5.60;1.63;;;21.90;63.60;;;;;;4876941;29;20173;-75
2022/09/10 04:28:15;;;;;;;6.38;1.95;;;21.90;63.40;;;;;;4876434;29;20037;-75
2022/09/10 04:30:44;;;;;;;5.30;1.90;;;21.90;63.40;;;;;;4876489;29;20037;-75
2022/09/10 04:33:10;;;;;;;4.57;1.75;;;21.90;63.30;;;;;;4877687;29;20036;-75
2022/09/10 04:35:38;;;;;;;7.55;1.95;;;21.80;63.40;;;;;;4861267;29;20410;-75
2022/09/10 04:38:06;;;;;;;4.68;1.50;;;21.80;63.40;;;;;;4877692;29;20040;-75
2022/09/10 04:40:34;;;;;;;5.10;1.73;;;21.90;63.30;;;;;;4876351;29;20379;-75
2022/09/10 04:43:00;;;;;;;5.10;1.90;;;21.90;63.40;;;;;;4876539;29;20406;-75
2022/09/10 04:45:26;;;;;;;9.65;1.90;;;21.90;63.50;;;;;;4876559;29;20036;-76
2022/09/10 04:47:53;;;;;;;4.07;1.85;;;21.80;63.30;;;;;;4877757;29;20037;-75
2022/09/10 04:50:20;;;;;;;5.47;1.95;;;21.90;63.30;;;;;;4877482;29;20052;-75
2022/09/10 04:53:06;;;;;;;3.88;1.60;;;21.80;63.00;;;;;;4877547;29;20504;-75
2022/09/10 04:55:35;;;;;;;5.60;1.77;;;21.80;63.20;;;;;;4876470;29;20029;-75
2022/09/10 04:58:01;;;;;;;6.45;2.17;;;21.80;63.20;;;;;;4876371;29;20379;-76
2022/09/10 05:00:27;;;;;;;5.72;2.15;;;21.80;63.10;;;;;;4875801;29;20129;-76
2022/09/10 05:02:53;;;;;;;5.93;1.98;;;21.80;62.90;;;;;;4878705;29;20029;-75
2022/09/10 05:05:19;;;;;;;3.83;1.90;;;21.80;63.10;;;;;;4893475;29;20043;-76
2022/09/10 05:07:45;;;;;;;5.00;1.80;;;21.80;63.80;;;;;;4894148;29;20410;-75
2022/09/10 05:10:12;;;;;;;4.90;2.10;;;21.80;63.00;;;;;;4894075;29;20028;-76
2022/09/10 05:12:39;;;;;;;4.28;1.70;;;21.80;63.00;;;;;;4894261;29;20056;-74
2022/09/10 05:15:06;;;;;;;4.60;1.55;;;21.80;63.00;;;;;;4880143;29;20062;-76
2022/09/10 05:17:32;;;;;;;6.55;1.80;;;21.80;63.00;;;;;;4898395;29;20025;-75
2022/09/10 05:19:59;;;;;;;5.22;1.90;;;21.80;63.00;;;;;;4898387;29;20405;-75
2022/09/10 05:22:25;;;;;;;4.60;1.92;;;21.80;63.00;;;;;;4883072;29;20036;-74
2022/09/10 05:24:54;;;;;;;3.75;1.88;;;21.80;63.00;;;;;;4898491;29;20470;-75
2022/09/10 05:27:19;;;;;;;5.38;1.80;;;21.80;62.90;;;;;;4898637;29;20039;-75
2022/09/10 05:29:45;;;;;;;4.63;2.10;;;21.80;62.90;;;;;;4898099;29;20032;-75
2022/09/10 05:32:12;;;;;;;5.68;1.80;;;21.80;62.80;;;;;;4882773;29;20035;-76
2022/09/10 05:34:38;;;;;;;3.67;1.80;;;21.80;62.90;;;;;;4898377;29;20589;-75
2022/09/10 05:37:07;;;;;;;4.25;1.70;;;21.80;62.80;;;;;;4898369;29;20520;-75
2022/09/10 05:39:34;;;;;;;;;;;21.80;62.70;;;;;;4898551;29;20040;-75
2022/09/10 05:42:01;;;;;;;4.85;1.77;;;21.80;62.90;;;;;;4898138;29;20390;-75
2022/09/10 05:44:27;;;;;;;3.40;1.60;;;21.80;62.70;;;;;;4882711;29;20159;-75
2022/09/10 05:46:53;;;;;;;4.18;1.60;;;21.80;62.70;;;;;;4898276;29;20190;-75
2022/09/10 05:49:19;;;;;;;4.88;1.70;;;21.80;62.80;;;;;;4898992;29;20025;-75
2022/09/10 05:51:45;;;;;;;4.53;1.90;;;21.80;62.70;;;;;;4882297;29;20044;-75
2022/09/10 05:54:11;;;;;;;8.57;1.65;;;21.80;62.70;;;;;;4897965;29;20024;-75
2022/09/10 05:56:39;;;;;;;3.97;1.75;;;21.80;62.70;;;;;;4898204;29;20032;-75
2022/09/10 05:59:05;;;;;;;7.57;1.90;;;21.80;62.70;;;;;;4897587;29;20068;-74
2022/09/10 06:01:32;;;;;;;11.25;2.38;;;21.90;62.80;;;;;;4897941;29;20107;-75
2022/09/10 06:03:58;;;;;;;4.32;1.55;;;21.90;63.00;;;;;;4897728;29;20045;-74
2022/09/10 06:06:26;;;;;;;4.63;1.83;;;21.90;62.50;;;;;;4897991;29;20036;-74
2022/09/10 06:08:57;;;;;;;4.90;1.77;;;21.90;62.50;;;;;;4882600;29;20041;-74
2022/09/10 06:11:42;;;;;;;5.57;1.85;;;21.80;62.40;;;;;;4898955;29;20081;-74
2022/09/10 06:14:09;;;;;;;4.95;1.80;;;21.80;62.40;;;;;;4897664;29;20024;-75
2022/09/10 06:16:35;;;;;;;5.50;1.70;;;21.90;62.50;;;;;;4897665;29;20032;-75
2022/09/10 06:19:01;;;;;;;5.07;1.80;;;21.80;62.60;;;;;;4897354;29;20036;-74
2022/09/10 06:21:28;;;;;;;5.55;1.90;;;21.80;62.50;;;;;;4897627;29;20029;-74
2022/09/10 06:23:55;;;;;;;4.97;1.40;;;21.80;62.40;;;;;;4897568;29;20040;-75
2022/09/10 06:26:22;;;;;;;5.32;1.80;;;21.80;62.40;;;;;;4897107;29;20055;-75
2022/09/10 06:28:54;;;;;;;;;;;21.80;62.50;;;;;;4897697;29;20060;-74
2022/09/10 06:31:19;;;;;;;3.42;1.52;;;21.80;62.50;;;;;;4897526;29;19918;-75
2022/09/10 06:33:47;;;;;;;2.65;1.60;;;21.80;62.40;;;;;;4898781;29;20024;-75
2022/09/10 06:36:17;;;;;;;5.43;1.52;;;21.80;62.30;;;;;;4898879;29;20414;-74
2022/09/10 06:38:44;;;;;;;4.15;1.60;;;21.80;62.30;;;;;;4897592;29;20036;-74
2022/09/10 06:41:12;;;;;;;2.88;1.35;;;21.80;62.40;;;;;;4897629;29;20517;-75
2022/09/10 06:43:45;;;;;;;5.05;1.50;;;21.80;62.40;;;;;;4897217;29;20108;-75
2022/09/10 06:46:30;;;;;;;4.95;1.60;;;21.80;62.30;;;;;;4898629;29;20032;-75
2022/09/10 06:49:04;;;;;;;4.10;1.48;;;21.80;62.30;;;;;;4897159;29;20402;-75
2022/09/10 06:51:32;;;;;;;2.88;1.73;;;21.80;62.30;;;;;;4897006;29;20047;-75
2022/09/10 06:54:00;;;;;;;4.13;2.10;;;21.80;62.30;;;;;;4881696;29;20033;-74
2022/09/10 06:56:26;;;;;;;4.97;1.90;;;21.80;62.50;;;;;;4881421;29;20442;-74
2022/09/10 06:58:53;;;;;;;4.05;1.92;;;21.80;62.30;;;;;;4896642;29;20040;-75
2022/09/10 07:01:22;;;;;;;4.72;1.85;;;21.80;62.50;;;;;;4896785;29;20474;-74
2022/09/10 07:03:55;;;;;;;4.57;1.65;;;21.80;62.40;;;;;;4896956;29;20047;-75
2022/09/10 07:06:23;;;;;;;3.13;1.50;;;21.80;62.30;;;;;;4896959;29;20036;-75
2022/09/10 07:08:56;;;;;;;3.67;1.35;;;21.90;62.40;;;;;;4896257;29;20420;-75
2022/09/10 07:11:25;;;;;;;3.70;1.67;;;21.90;62.50;;;;;;4896478;29;20482;-75
2022/09/10 07:13:53;;;;;;;3.10;1.50;;;21.90;62.30;;;;;;4896839;29;20505;-77
2022/09/10 07:16:25;;;;;;;5.85;1.75;;;21.90;62.40;;;;;;4896685;29;20410;-76
2022/09/10 07:18:53;;;;;;;4.05;1.70;;;21.90;62.40;;;;;;4894521;29;20028;-76
2022/09/10 07:21:23;;;;;;;3.78;1.58;;;21.90;62.40;;;;;;4888126;29;20032;-76
2022/09/10 07:23:57;;;;;;;4.70;1.60;;;21.90;62.40;;;;;;4885926;29;20037;-76
2022/09/10 07:26:24;;;;;;;5.13;1.90;;;21.90;62.40;;;;;;4902179;29;20032;-77
2022/09/10 07:28:53;;;;;;;4.30;1.60;;;21.90;62.40;;;;;;4887273;29;20036;-76
2022/09/10 07:31:21;;;;;;;4.28;1.58;;;22.00;62.60;;;;;;4886271;29;20029;-76
2022/09/10 07:33:49;;;;;;;3.80;1.55;;;22.00;62.60;;;;;;4901363;29;20025;-77
2022/09/10 07:36:17;;;;;;;6.07;1.50;;;22.00;62.80;;;;;;4903036;29;20160;-76
2022/09/10 07:38:45;;;;;;;3.05;1.50;;;22.00;62.60;;;;;;4888605;29;20043;-69
2022/09/10 07:41:13;;;;;;;4.22;1.73;;;22.10;63.10;;;;;;4893798;29;20037;-69
2022/09/10 07:43:40;;;;;;;8.20;2.00;;;22.10;62.80;;;;;;4892409;29;20112;-69
2022/09/10 07:46:19;;;;;;;8.05;2.05;;;22.10;62.40;;;;;;4891436;29;20040;-72
2022/09/10 07:48:52;;;;;;;4.53;1.45;;;22.10;62.30;;;;;;4873125;29;20032;-71
2022/09/10 07:51:18;;;;;;;10.73;1.60;;;22.10;62.30;;;;;;4888862;29;20549;-72
2022/09/10 07:53:45;;;;;;;14.07;2.00;;;22.10;62.20;;;;;;4891991;29;20413;-72
2022/09/10 07:56:11;;;;;;;5.93;1.80;;;22.10;62.50;;;;;;4895767;29;20028;-72
2022/09/10 07:58:39;;;;;;;17.73;1.92;;;22.10;62.30;;;;;;4895457;29;20088;-74
2022/09/10 08:01:10;;;;;;;11.75;2.20;;;22.10;62.40;;;;;;4895454;29;20044;-72
2022/09/10 08:03:37;;;;;;;7.47;1.75;;;22.20;62.50;;;;;;4895593;29;20375;-73
2022/09/10 08:06:05;;;;;;;5.03;2.10;;;22.20;62.80;;;;;;4895589;29;20028;-74
2022/09/10 08:08:34;;;;;;;16.48;2.30;;;22.20;63.20;;;;;;4895087;29;20087;-72
2022/09/10 08:11:16;;;;;;;7.57;1.60;;;22.30;63.20;;;;;;4895543;29;20024;-72
2022/09/10 08:13:45;;;;;;;5.90;2.03;;;22.30;63.00;;;;;;4880105;29;20512;-73
2022/09/10 08:16:14;;;;;;;7.80;1.87;;;22.30;63.40;;;;;;4895559;29;20024;-72
2022/09/10 08:18:41;;;;;;;7.77;1.73;;;22.30;63.70;;;;;;4894534;29;20039;-72
2022/09/10 08:21:08;;;;;;;6.22;2.10;;;22.30;63.50;;;;;;4893278;29;20085;-72
2022/09/10 08:23:35;;;;;;;9.65;2.10;;;22.30;63.30;;;;;;4884699;29;20037;-72
2022/09/10 08:26:03;;;;;;;7.47;2.30;;;22.30;63.30;;;;;;4890005;29;20071;-71
2022/09/10 08:28:29;;;;;;;22.58;11.85;;;22.30;63.00;;;;;;4878222;29;20068;-72
2022/09/10 08:31:00;;;;;;;24.42;11.85;;;22.40;62.70;;;;;;4893798;29;20502;-70
2022/09/10 08:33:27;;;;;;;16.70;4.13;;;22.30;62.80;;;;;;4889834;29;20052;-71
2022/09/10 08:35:56;;;;;;;7.95;2.95;;;22.30;62.80;;;;;;4908119;29;20040;-71
2022/09/10 08:38:49;;;;;;;14.17;5.03;;;22.30;62.70;;;;;;4891707;29;20044;-72
2022/09/10 08:41:25;;;;;;;16.85;6.10;;;22.30;62.90;;;;;;4898929;29;20036;-71
2022/09/10 08:44:02;;;;;;;7.65;3.63;;;22.30;62.90;;;;;;4896775;29;20032;-71
2022/09/10 08:46:36;;;;;;;10.95;4.43;;;22.30;62.50;;;;;;4889246;29;20117;-71
2022/09/10 08:49:30;;;;;;;11.98;4.95;;;22.40;62.50;;;;;;4897996;29;20052;-73
2022/09/10 08:52:03;;;;;;;8.90;3.45;;;22.30;62.50;;;;;;4886575;29;20033;-72
2022/09/10 08:54:39;;;;;;;6.90;3.30;;;22.30;62.50;;;;;;4876982;29;20087;-73
2022/09/10 08:57:11;;;;;;;10.15;3.10;;;22.40;62.30;;;;;;4910695;29;20028;-72
2022/09/10 08:59:44;;;;;;;7.40;3.20;;;22.40;62.30;;;;;;4892037;29;20043;-72
2022/09/10 09:02:15;;;;;;;9.65;3.15;;;22.40;62.30;;;;;;4910692;29;20284;-72
2022/09/10 09:05:14;;;;;;;7.10;3.08;;;22.40;62.40;;;;;;4910570;29;20039;-72
2022/09/10 09:07:40;;;;;;;7.82;2.45;;;22.40;62.30;;;;;;4909113;29;20044;-72
2022/09/10 09:10:23;;;;;;;5.18;2.40;;;22.40;62.20;;;;;;4910634;29;20045;-72
2022/09/10 09:13:25;;;;;;;9.23;2.85;;;22.40;62.30;;;;;;4895413;29;20401;-73
2022/09/10 09:16:11;;;;;;;10.23;2.22;;;22.40;62.40;;;;;;4910504;29;20032;-71
2022/09/10 09:18:55;;;;;;;9.20;3.20;;;22.40;62.40;;;;;;4879136;29;20043;-72
2022/09/10 09:21:44;;;;;;;7.85;2.53;;;22.40;62.50;;;;;;4892971;29;20504;-72
2022/09/10 09:24:40;;;;;;;8.48;2.92;;;22.30;62.30;;;;;;4893917;29;20560;-73
2022/09/10 09:27:12;;;;;;;22.17;2.67;;;22.40;62.50;;;;;;4910346;29;20131;-74
2022/09/10 09:30:13;;;;;;;12.52;2.08;;;22.40;62.10;;;;;;4890942;29;20033;-74
2022/09/10 09:32:43;;;;;;;13.02;2.55;;;22.40;61.90;;;;;;4869303;29;20045;-75
2022/09/10 09:35:33;;;;;;;6.32;1.90;;;22.40;62.20;;;;;;4883965;29;20033;-75
2022/09/10 09:38:13;;;;;;;6.82;1.90;;;22.40;61.70;;;;;;4905239;29;20442;-74
2022/09/10 09:40:43;;;;;;;9.27;2.40;;;22.50;61.70;;;;;;4892694;29;20040;-74
2022/09/10 09:43:26;;;;;;;8.53;2.20;;;22.40;62.40;;;;;;4898565;29;20032;-75
2022/09/10 09:45:53;;;;;;;5.07;1.85;;;22.40;61.80;;;;;;4893137;29;20417;-74
2022/09/10 09:48:21;;;;;;;7.65;2.40;;;22.40;61.70;;;;;;4892900;29;20088;-74
2022/09/10 09:50:54;;;;;;;12.27;1.80;;;22.40;62.00;;;;;;4893983;29;20107;-76
2022/09/10 09:53:26;;;;;;;9.32;3.33;;;22.30;61.50;;;;;;4874100;29;20857;-75
2022/09/10 09:56:00;;;;;;;12.50;4.28;;;22.30;61.20;;;;;;4891901;29;20091;-74
2022/09/10 09:58:32;;;;;;;7.28;3.22;;;22.30;61.30;;;;;;4905537;29;20050;-73
2022/09/10 10:01:04;;;;;;;13.18;3.25;;;22.30;61.50;;;;;;4883631;29;20040;-74
2022/09/10 10:03:32;;;;;;;10.30;2.53;;;22.30;61.20;;;;;;4901762;29;20036;-74
2022/09/10 10:06:10;;;;;;;6.75;2.67;;;22.30;61.10;;;;;;4888019;29;20025;-73
2022/09/10 10:08:43;;;;;;;6.30;2.55;;;22.40;61.20;;;;;;4891400;29;20025;-73
2022/09/10 10:11:16;;;;;;;5.47;2.25;;;22.40;61.20;;;;;;4888135;29;20025;-73
2022/09/10 10:13:44;;;;;;;8.45;2.10;;;22.40;61.60;;;;;;4896168;29;20032;-73
2022/09/10 10:16:32;;;;;;;6.32;2.45;;;22.40;61.80;;;;;;4898936;29;20033;-73
2022/09/10 10:18:58;;;;;;;8.20;2.45;;;22.40;61.10;;;;;;4898629;29;20037;-73
2022/09/10 10:21:32;;;;;;;8.13;2.00;;;22.40;61.50;;;;;;4898715;29;20119;-74
2022/09/10 10:23:59;;;;;;;7.05;2.20;;;22.40;61.10;;;;;;4897644;29;20064;-73
2022/09/10 10:26:32;;;;;;;5.15;1.90;;;22.40;62.10;;;;;;4898782;29;20040;-73
2022/09/10 10:29:05;;;;;;;8.88;2.38;;;22.40;62.10;;;;;;4897175;29;20037;-74
2022/09/10 10:31:40;;;;;;;6.28;2.28;;;22.40;62.40;;;;;;4897656;29;20068;-74
2022/09/10 10:34:09;;;;;;;8.88;2.33;;;22.40;62.90;;;;;;4882115;29;20029;-73
2022/09/10 10:37:05;;;;;;;7.70;2.33;;;22.40;62.60;;;;;;4898664;29;20033;-74
2022/09/10 10:40:00;;;;;;;10.02;2.25;;;22.40;62.00;;;;;;4897027;29;20036;-72
2022/09/10 10:42:43;;;;;;;5.35;1.88;;;22.40;63.20;;;;;;4898305;29;20028;-74
2022/09/10 10:45:36;;;;;;;10.48;2.33;;;22.40;63.00;;;;;;4898458;29;20040;-72
2022/09/10 10:48:13;;;;;;;9.93;2.00;;;22.30;62.00;;;;;;4896567;29;20132;-73
2022/09/10 10:50:54;;;;;;;6.22;2.15;;;22.30;62.20;;;;;;4893472;29;20033;-74
2022/09/10 10:53:34;;;;;;;10.40;2.08;;;22.20;62.70;;;;;;4893910;29;20080;-73
2022/09/10 10:56:16;;;;;;;7.18;2.00;;;22.20;62.50;;;;;;4905891;29;20439;-73
2022/09/10 10:58:58;;;;;;;6.53;1.87;;;22.20;62.40;;;;;;4888549;29;20036;-73
2022/09/10 11:01:28;;;;;;;14.73;1.90;;;22.20;62.70;;;;;;4890955;29;20040;-73
2022/09/10 11:04:21;;;;;;;8.43;2.15;;;22.30;62.30;;;;;;4860717;29;20045;-73
2022/09/10 11:06:56;;;;;;;6.90;2.20;;;22.30;62.00;;;;;;4903827;29;20036;-74
2022/09/10 11:09:41;;;;;;;9.70;2.13;;;22.40;61.70;;;;;;4896267;29;20044;-73
2022/09/10 11:12:34;;;;;;;8.10;1.90;;;22.50;61.60;;;;;;4898234;29;20556;-74
2022/09/10 11:15:12;;;;;;;9.57;2.40;;;22.50;61.10;;;;;;4912942;29;20477;-76
2022/09/10 11:17:46;;;;;;;7.32;2.00;;;22.50;61.90;;;;;;4893413;29;20033;-74
2022/09/10 11:20:11;;;;;;;8.55;2.28;;;22.50;61.30;;;;;;4901041;29;20496;-76
2022/09/10 11:22:47;;;;;;;16.08;3.03;;;22.50;61.40;;;;;;4905903;29;20024;-75
2022/09/10 11:25:54;;;;;;;12.73;3.40;;;22.50;61.30;;;;;;4910205;29;20130;-78
2022/09/10 11:28:30;;;;;;;36.25;3.80;;;22.50;61.20;;;;;;4875316;29;20163;-79
2022/09/10 11:31:30;;;;;;;24.17;3.78;;;22.60;62.90;;;;;;4891599;29;20131;-76
2022/09/10 11:34:10;;;;;;;;;;;22.60;61.80;;;;;;4878171;29;20474;-75
2022/09/10 11:36:45;;;;;;;;;;;22.60;62.10;;;;;;4905530;29;19959;-75
2022/09/10 11:39:34;;;;;;;18.02;3.72;;;22.60;61.90;;;;;;4880369;29;20333;-75
2022/09/10 11:42:12;;;;;;;19.02;3.53;;;22.50;61.90;;;;;;4897283;29;20099;-75
2022/09/10 11:45:02;;;;;;;20.13;4.80;;;22.40;62.20;;;;;;4880908;29;20075;-76
2022/09/10 11:47:34;;;;;;;18.07;3.90;;;22.50;62.50;;;;;;4896135;29;20068;-76
2022/09/10 11:50:02;;;;;;;14.63;3.63;;;22.40;62.40;;;;;;4897084;29;20490;-76
2022/09/10 11:52:32;;;;;;;14.35;4.45;;;22.40;62.40;;;;;;4897031;29;20036;-76
2022/09/10 11:54:58;;;;;;;17.65;4.38;;;22.40;62.50;;;;;;4896166;29;20020;-75
2022/09/10 11:57:48;;;;;;;18.63;4.47;;;22.40;62.60;;;;;;4897097;29;20087;-75
2022/09/10 12:00:17;;;;;;;14.77;4.60;;;22.40;62.60;;;;;;4880046;29;20036;-75
2022/09/10 12:03:02;;;;;;;15.85;5.20;;;22.40;62.60;;;;;;4896834;29;20036;-75
2022/09/10 12:06:02;;;;;;;21.55;5.78;;;22.40;62.60;;;;;;4897163;29;20052;-75
2022/09/10 12:09:04;;;;;;;20.75;4.85;;;22.40;62.60;;;;;;4896634;29;20546;-76
2022/09/10 12:11:36;;;;;;;15.07;4.80;;;22.40;62.60;;;;;;4897168;29;20081;-75
2022/09/10 12:14:18;;;;;;;19.58;5.60;;;22.40;62.50;;;;;;5108925;27;20380;-75
2022/09/10 12:16:58;;;;;;;16.57;4.47;;;22.40;62.60;;;;;;5107833;28;20028;-76
2022/09/10 12:19:29;;;;;;;13.07;4.57;;;22.40;62.60;;;;;;5108611;28;20257;-76
2022/09/10 12:22:00;;;;;;;14.70;4.60;;;22.40;62.60;;;;;;5108899;28;20024;-76
2022/09/10 12:24:33;;;;;;;18.33;5.38;;;22.40;62.70;;;;;;5103473;28;20519;-75
2022/09/10 12:27:04;;;;;;;16.60;4.88;;;22.40;62.90;;;;;;5104484;28;20080;-75
2022/09/10 12:29:41;;;;;;;19.85;6.20;;;22.40;63.20;;;;;;5087349;28;20431;-77
2022/09/10 12:32:13;;;;;;;21.20;6.78;;;22.50;64.30;;;;;;5097955;28;20088;-73
2022/09/10 12:34:40;;;;;;;17.50;5.10;;;22.50;64.60;;;;;;5108293;28;20020;-76
2022/09/10 12:37:24;;;;;;;20.85;6.18;;;22.60;64.60;;;;;;5107170;28;20038;-76
2022/09/10 12:40:21;;;;;;;35.78;7.05;;;22.60;65.20;;;;;;5107081;28;20610;-75
2022/09/10 12:42:47;;;;;;;46.65;8.68;;;22.60;65.70;;;;;;5107974;28;20495;-76
2022/09/10 12:45:51;;;;;;;39.50;7.13;;;22.60;66.90;;;;;;5108237;28;20108;-78
2022/09/10 12:48:17;;;;;;;34.10;7.90;;;22.60;66.70;;;;;;5098308;28;20472;-79
2022/09/10 12:50:52;;;;;;;30.20;6.82;;;22.50;65.90;;;;;;5104129;28;20028;-71
2022/09/10 12:53:38;;;;;;;35.75;6.82;;;22.60;65.40;;;;;;5100214;28;20024;-71
2022/09/10 12:56:24;;;;;;;32.28;6.93;;;22.60;67.60;;;;;;5101091;28;20032;-71
2022/09/10 12:59:31;;;;;;;26.23;5.97;;;22.60;69.70;;;;;;5102037;28;20027;-72
2022/09/10 13:01:57;;;;;;;24.10;5.43;;;22.60;67.70;;;;;;5085643;28;20111;-72
2022/09/10 13:04:29;;;;;;;24.05;5.25;;;22.60;67.70;;;;;;5104241;28;20015;-70
2022/09/10 13:07:26;;;;;;;24.77;5.97;;;22.60;67.90;;;;;;5102946;28;20020;-73
2022/09/10 13:10:20;;;;;;;20.73;5.15;;;22.60;68.00;;;;;;5069604;28;20040;-74
2022/09/10 13:12:50;;;;;;;22.13;4.80;;;22.60;68.10;;;;;;5100733;28;20491;-72
2022/09/10 13:15:26;;;;;;;22.25;5.75;;;22.60;67.90;;;;;;5102036;28;20028;-71